sensor_id;sensor_type;location;lat;lon;timestamp;temperature;humidity
54006;DHT22;39919;38.160;-122.260;2023-03-01T00:01:54;12.50;86.00
54006;DHT22;39919;38.160;-122.260;2023-03-01T00:04:28;12.60;85.70
54006;DHT22;39919;38.160;-122.260;2023-03-01T00:06:57;12.50;85.40
54006;DHT22;39919;38.160;-122.260;2023-03-01T00:09:26;12.50;85.60
54006;DHT22;39919;38.160;-122.260;2023-03-01T00:11:55;12.40;85.70
54006;DHT22;39919;38.160;-122.260;2023-03-01T00:14:24;12.40;85.90
54006;DHT22;39919;38.160;-122.260;2023-03-01T00:16:54;12.40;85.80
54006;DHT22;39919;38.160;-122.260;2023-03-01T00:19:23;12.40;85.90
54006;DHT22;39919;38.160;-122.260;2023-03-01T00:21:53;12.40;86.10
54006;DHT22;39919;38.160;-122.260;2023-03-01T00:24:23;12.40;86.50
54006;DHT22;39919;38.160;-122.260;2023-03-01T00:26:53;12.40;86.50
54006;DHT22;39919;38.160;-122.260;2023-03-01T00:29:24;12.30;86.60
54006;DHT22;39919;38.160;-122.260;2023-03-01T00:31:53;12.30;86.90
54006;DHT22;39919;38.160;-122.260;2023-03-01T00:34:22;12.40;86.80
54006;DHT22;39919;38.160;-122.260;2023-03-01T00:36:53;12.30;86.70
54006;DHT22;39919;38.160;-122.260;2023-03-01T00:39:22;12.30;86.90
54006;DHT22;39919;38.160;-122.260;2023-03-01T00:41:51;12.30;86.60
54006;DHT22;39919;38.160;-122.260;2023-03-01T00:44:20;12.30;86.80
54006;DHT22;39919;38.160;-122.260;2023-03-01T00:46:49;12.20;86.20
54006;DHT22;39919;38.160;-122.260;2023-03-01T00:49:18;12.20;85.80
54006;DHT22;39919;38.160;-122.260;2023-03-01T00:51:47;12.10;86.00
54006;DHT22;39919;38.160;-122.260;2023-03-01T00:54:18;12.00;86.00
54006;DHT22;39919;38.160;-122.260;2023-03-01T00:56:47;12.00;86.40
54006;DHT22;39919;38.160;-122.260;2023-03-01T00:59:16;11.90;86.50
54006;DHT22;39919;38.160;-122.260;2023-03-01T01:01:45;11.80;86.60
54006;DHT22;39919;38.160;-122.260;2023-03-01T01:04:15;11.70;86.60
54006;DHT22;39919;38.160;-122.260;2023-03-01T01:06:57;11.60;86.70
54006;DHT22;39919;38.160;-122.260;2023-03-01T01:09:28;11.50;87.00
54006;DHT22;39919;38.160;-122.260;2023-03-01T01:11:57;11.50;87.20
54006;DHT22;39919;38.160;-122.260;2023-03-01T01:14:26;11.40;87.40
54006;DHT22;39919;38.160;-122.260;2023-03-01T01:16:55;11.40;87.40
54006;DHT22;39919;38.160;-122.260;2023-03-01T01:19:25;11.30;87.20
54006;DHT22;39919;38.160;-122.260;2023-03-01T01:21:54;11.20;87.20
54006;DHT22;39919;38.160;-122.260;2023-03-01T01:24:23;11.20;87.30
54006;DHT22;39919;38.160;-122.260;2023-03-01T01:26:54;11.10;87.70
54006;DHT22;39919;38.160;-122.260;2023-03-01T01:29:23;11.00;88.10
54006;DHT22;39919;38.160;-122.260;2023-03-01T01:31:52;11.00;88.50
54006;DHT22;39919;38.160;-122.260;2023-03-01T01:34:22;11.00;89.00
54006;DHT22;39919;38.160;-122.260;2023-03-01T01:36:52;10.90;89.30
54006;DHT22;39919;38.160;-122.260;2023-03-01T01:39:22;10.80;89.60
54006;DHT22;39919;38.160;-122.260;2023-03-01T01:41:51;10.80;90.00
54006;DHT22;39919;38.160;-122.260;2023-03-01T01:44:24;10.70;90.00
54006;DHT22;39919;38.160;-122.260;2023-03-01T01:46:55;10.70;90.10
54006;DHT22;39919;38.160;-122.260;2023-03-01T01:49:30;10.60;90.20
54006;DHT22;39919;38.160;-122.260;2023-03-01T01:52:09;10.60;90.40
54006;DHT22;39919;38.160;-122.260;2023-03-01T01:54:45;10.50;90.50
54006;DHT22;39919;38.160;-122.260;2023-03-01T01:57:18;10.50;90.70
54006;DHT22;39919;38.160;-122.260;2023-03-01T01:59:51;10.50;90.80
54006;DHT22;39919;38.160;-122.260;2023-03-01T02:02:21;10.40;91.00
54006;DHT22;39919;38.160;-122.260;2023-03-01T02:05:03;10.30;91.10
54006;DHT22;39919;38.160;-122.260;2023-03-01T02:07:38;10.30;91.20
54006;DHT22;39919;38.160;-122.260;2023-03-01T02:10:09;10.30;91.40
54006;DHT22;39919;38.160;-122.260;2023-03-01T02:12:38;10.20;91.50
54006;DHT22;39919;38.160;-122.260;2023-03-01T02:15:10;10.20;91.70
54006;DHT22;39919;38.160;-122.260;2023-03-01T02:17:39;10.10;91.90
54006;DHT22;39919;38.160;-122.260;2023-03-01T02:20:16;10.10;92.10
54006;DHT22;39919;38.160;-122.260;2023-03-01T02:22:50;10.00;92.30
54006;DHT22;39919;38.160;-122.260;2023-03-01T02:28:30;10.00;92.30
54006;DHT22;39919;38.160;-122.260;2023-03-01T02:30:59;9.90;91.60
54006;DHT22;39919;38.160;-122.260;2023-03-01T02:33:46;9.80;91.30
54006;DHT22;39919;38.160;-122.260;2023-03-01T02:36:18;9.80;90.90
54006;DHT22;39919;38.160;-122.260;2023-03-01T02:38:51;9.70;90.80
54006;DHT22;39919;38.160;-122.260;2023-03-01T02:41:21;9.60;90.80
54006;DHT22;39919;38.160;-122.260;2023-03-01T02:43:53;9.60;90.70
54006;DHT22;39919;38.160;-122.260;2023-03-01T02:46:25;9.50;90.60
54006;DHT22;39919;38.160;-122.260;2023-03-01T02:48:58;9.40;90.60
54006;DHT22;39919;38.160;-122.260;2023-03-01T02:51:44;9.40;90.60
54006;DHT22;39919;38.160;-122.260;2023-03-01T02:54:20;9.30;90.40
54006;DHT22;39919;38.160;-122.260;2023-03-01T02:56:53;9.30;90.50
54006;DHT22;39919;38.160;-122.260;2023-03-01T02:59:28;9.20;90.50
54006;DHT22;39919;38.160;-122.260;2023-03-01T03:01:58;9.20;90.40
54006;DHT22;39919;38.160;-122.260;2023-03-01T03:04:29;9.10;90.20
54006;DHT22;39919;38.160;-122.260;2023-03-01T03:06:58;9.00;90.00
54006;DHT22;39919;38.160;-122.260;2023-03-01T03:09:27;9.00;90.00
54006;DHT22;39919;38.160;-122.260;2023-03-01T03:11:57;8.90;90.10
54006;DHT22;39919;38.160;-122.260;2023-03-01T03:14:27;8.90;90.40
54006;DHT22;39919;38.160;-122.260;2023-03-01T03:16:56;8.80;90.20
54006;DHT22;39919;38.160;-122.260;2023-03-01T03:19:26;8.70;90.40
54006;DHT22;39919;38.160;-122.260;2023-03-01T03:21:55;8.70;90.60
54006;DHT22;39919;38.160;-122.260;2023-03-01T03:24:26;8.60;90.70
54006;DHT22;39919;38.160;-122.260;2023-03-01T03:27:05;8.50;90.90
54006;DHT22;39919;38.160;-122.260;2023-03-01T03:29:36;8.50;91.20
54006;DHT22;39919;38.160;-122.260;2023-03-01T03:32:05;8.50;91.40
54006;DHT22;39919;38.160;-122.260;2023-03-01T03:34:47;8.40;91.80
54006;DHT22;39919;38.160;-122.260;2023-03-01T03:37:16;8.40;92.10
54006;DHT22;39919;38.160;-122.260;2023-03-01T03:39:59;8.40;92.30
54006;DHT22;39919;38.160;-122.260;2023-03-01T03:42:29;8.30;92.50
54006;DHT22;39919;38.160;-122.260;2023-03-01T03:45:00;8.30;92.70
54006;DHT22;39919;38.160;-122.260;2023-03-01T03:47:30;8.30;92.90
54006;DHT22;39919;38.160;-122.260;2023-03-01T03:49:59;8.30;93.10
54006;DHT22;39919;38.160;-122.260;2023-03-01T03:52:28;8.20;93.30
54006;DHT22;39919;38.160;-122.260;2023-03-01T03:54:57;8.30;93.70
54006;DHT22;39919;38.160;-122.260;2023-03-01T03:57:26;8.20;94.10
54006;DHT22;39919;38.160;-122.260;2023-03-01T03:59:55;8.20;94.60
54006;DHT22;39919;38.160;-122.260;2023-03-01T04:02:26;8.20;94.90
54006;DHT22;39919;38.160;-122.260;2023-03-01T04:04:55;8.20;95.10
54006;DHT22;39919;38.160;-122.260;2023-03-01T04:07:24;8.10;95.30
54006;DHT22;39919;38.160;-122.260;2023-03-01T04:09:53;8.10;95.50
54006;DHT22;39919;38.160;-122.260;2023-03-01T04:12:22;8.20;95.80
54006;DHT22;39919;38.160;-122.260;2023-03-01T04:14:52;8.10;95.80
54006;DHT22;39919;38.160;-122.260;2023-03-01T04:17:21;8.10;95.80
54006;DHT22;39919;38.160;-122.260;2023-03-01T04:19:51;8.10;95.80
54006;DHT22;39919;38.160;-122.260;2023-03-01T04:22:20;8.10;95.90
54006;DHT22;39919;38.160;-122.260;2023-03-01T04:24:50;8.00;95.90
54006;DHT22;39919;38.160;-122.260;2023-03-01T04:27:19;8.00;95.90
54006;DHT22;39919;38.160;-122.260;2023-03-01T04:29:48;8.00;96.00
54006;DHT22;39919;38.160;-122.260;2023-03-01T04:32:17;8.00;96.20
54006;DHT22;39919;38.160;-122.260;2023-03-01T04:34:46;8.00;96.40
54006;DHT22;39919;38.160;-122.260;2023-03-01T04:37:17;7.90;96.50
54006;DHT22;39919;38.160;-122.260;2023-03-01T04:39:46;7.90;96.50
54006;DHT22;39919;38.160;-122.260;2023-03-01T04:42:15;7.90;96.50
54006;DHT22;39919;38.160;-122.260;2023-03-01T04:44:45;7.90;96.60
54006;DHT22;39919;38.160;-122.260;2023-03-01T04:47:14;7.80;96.60
54006;DHT22;39919;38.160;-122.260;2023-03-01T04:49:43;7.80;96.70
54006;DHT22;39919;38.160;-122.260;2023-03-01T04:52:12;7.80;96.70
54006;DHT22;39919;38.160;-122.260;2023-03-01T04:54:43;7.80;96.60
54006;DHT22;39919;38.160;-122.260;2023-03-01T04:57:12;7.70;96.50
54006;DHT22;39919;38.160;-122.260;2023-03-01T04:59:41;7.70;96.60
54006;DHT22;39919;38.160;-122.260;2023-03-01T05:02:10;7.60;96.60
54006;DHT22;39919;38.160;-122.260;2023-03-01T05:04:40;7.60;96.70
54006;DHT22;39919;38.160;-122.260;2023-03-01T05:07:09;7.50;96.90
54006;DHT22;39919;38.160;-122.260;2023-03-01T05:09:39;7.50;97.20
54006;DHT22;39919;38.160;-122.260;2023-03-01T05:12:10;7.50;97.40
54006;DHT22;39919;38.160;-122.260;2023-03-01T05:14:39;7.40;97.70
54006;DHT22;39919;38.160;-122.260;2023-03-01T05:17:08;7.40;97.70
54006;DHT22;39919;38.160;-122.260;2023-03-01T05:19:38;7.40;97.90
54006;DHT22;39919;38.160;-122.260;2023-03-01T05:22:09;7.30;98.00
54006;DHT22;39919;38.160;-122.260;2023-03-01T05:24:38;7.30;98.00
54006;DHT22;39919;38.160;-122.260;2023-03-01T05:27:09;7.30;98.00
54006;DHT22;39919;38.160;-122.260;2023-03-01T05:29:38;7.20;98.10
54006;DHT22;39919;38.160;-122.260;2023-03-01T05:32:07;7.20;98.20
54006;DHT22;39919;38.160;-122.260;2023-03-01T05:34:42;7.20;98.50
54006;DHT22;39919;38.160;-122.260;2023-03-01T05:37:16;7.10;98.60
54006;DHT22;39919;38.160;-122.260;2023-03-01T05:39:45;7.10;98.70
54006;DHT22;39919;38.160;-122.260;2023-03-01T05:42:18;7.10;98.80
54006;DHT22;39919;38.160;-122.260;2023-03-01T05:44:47;7.00;98.80
54006;DHT22;39919;38.160;-122.260;2023-03-01T05:47:17;7.00;98.80
54006;DHT22;39919;38.160;-122.260;2023-03-01T05:49:47;7.00;98.70
54006;DHT22;39919;38.160;-122.260;2023-03-01T05:52:17;7.00;98.70
54006;DHT22;39919;38.160;-122.260;2023-03-01T05:54:46;6.90;98.60
54006;DHT22;39919;38.160;-122.260;2023-03-01T05:57:18;6.90;98.60
54006;DHT22;39919;38.160;-122.260;2023-03-01T05:59:47;6.90;98.80
54006;DHT22;39919;38.160;-122.260;2023-03-01T06:02:16;6.80;99.00
54006;DHT22;39919;38.160;-122.260;2023-03-01T06:04:45;6.80;98.90
54006;DHT22;39919;38.160;-122.260;2023-03-01T06:07:14;6.80;98.80
54006;DHT22;39919;38.160;-122.260;2023-03-01T06:09:43;6.70;98.80
54006;DHT22;39919;38.160;-122.260;2023-03-01T06:12:12;6.70;98.70
54006;DHT22;39919;38.160;-122.260;2023-03-01T06:14:43;6.60;98.60
54006;DHT22;39919;38.160;-122.260;2023-03-01T06:17:13;6.60;98.50
54006;DHT22;39919;38.160;-122.260;2023-03-01T06:19:42;6.60;98.50
54006;DHT22;39919;38.160;-122.260;2023-03-01T06:22:12;6.50;98.50
54006;DHT22;39919;38.160;-122.260;2023-03-01T06:24:41;6.40;98.40
54006;DHT22;39919;38.160;-122.260;2023-03-01T06:27:10;6.40;98.40
54006;DHT22;39919;38.160;-122.260;2023-03-01T06:29:39;6.40;98.50
54006;DHT22;39919;38.160;-122.260;2023-03-01T06:32:10;6.30;98.60
54006;DHT22;39919;38.160;-122.260;2023-03-01T06:34:39;6.30;98.80
54006;DHT22;39919;38.160;-122.260;2023-03-01T06:37:09;6.30;99.10
54006;DHT22;39919;38.160;-122.260;2023-03-01T06:39:38;6.20;99.10
54006;DHT22;39919;38.160;-122.260;2023-03-01T06:42:08;6.10;99.30
54006;DHT22;39919;38.160;-122.260;2023-03-01T06:44:38;6.10;99.50
54006;DHT22;39919;38.160;-122.260;2023-03-01T06:47:09;6.10;99.80
54006;DHT22;39919;38.160;-122.260;2023-03-01T06:49:38;6.00;99.90
54006;DHT22;39919;38.160;-122.260;2023-03-01T06:52:07;5.90;99.80
54006;DHT22;39919;38.160;-122.260;2023-03-01T06:54:36;6.00;99.80
54006;DHT22;39919;38.160;-122.260;2023-03-01T06:57:06;5.90;99.90
54006;DHT22;39919;38.160;-122.260;2023-03-01T06:59:35;5.90;99.90
54006;DHT22;39919;38.160;-122.260;2023-03-01T07:02:04;5.80;99.90
54006;DHT22;39919;38.160;-122.260;2023-03-01T07:04:34;5.80;99.90
54006;DHT22;39919;38.160;-122.260;2023-03-01T07:07:04;5.70;99.90
54006;DHT22;39919;38.160;-122.260;2023-03-01T07:09:33;5.70;99.90
54006;DHT22;39919;38.160;-122.260;2023-03-01T07:12:02;5.70;99.90
54006;DHT22;39919;38.160;-122.260;2023-03-01T07:14:31;5.60;99.90
54006;DHT22;39919;38.160;-122.260;2023-03-01T07:17:00;5.60;99.90
54006;DHT22;39919;38.160;-122.260;2023-03-01T07:19:29;5.60;99.90
54006;DHT22;39919;38.160;-122.260;2023-03-01T07:22:00;5.50;99.90
54006;DHT22;39919;38.160;-122.260;2023-03-01T07:24:31;5.50;99.90
54006;DHT22;39919;38.160;-122.260;2023-03-01T07:27:00;5.40;99.90
54006;DHT22;39919;38.160;-122.260;2023-03-01T07:29:29;5.40;99.90
54006;DHT22;39919;38.160;-122.260;2023-03-01T07:31:58;5.40;99.90
54006;DHT22;39919;38.160;-122.260;2023-03-01T07:34:27;5.30;99.90
54006;DHT22;39919;38.160;-122.260;2023-03-01T07:36:56;5.30;99.90
54006;DHT22;39919;38.160;-122.260;2023-03-01T07:39:27;5.30;99.90
54006;DHT22;39919;38.160;-122.260;2023-03-01T07:41:56;5.30;99.90
54006;DHT22;39919;38.160;-122.260;2023-03-01T07:44:25;5.20;99.90
54006;DHT22;39919;38.160;-122.260;2023-03-01T07:46:55;5.20;99.90
54006;DHT22;39919;38.160;-122.260;2023-03-01T07:49:24;5.20;99.90
54006;DHT22;39919;38.160;-122.260;2023-03-01T07:51:54;5.10;99.90
54006;DHT22;39919;38.160;-122.260;2023-03-01T07:54:23;5.10;99.90
54006;DHT22;39919;38.160;-122.260;2023-03-01T07:56:55;5.10;99.90
54006;DHT22;39919;38.160;-122.260;2023-03-01T07:59:25;5.10;99.90
54006;DHT22;39919;38.160;-122.260;2023-03-01T08:01:55;5.10;99.90
54006;DHT22;39919;38.160;-122.260;2023-03-01T08:04:25;5.00;99.90
54006;DHT22;39919;38.160;-122.260;2023-03-01T08:06:54;5.00;99.90
54006;DHT22;39919;38.160;-122.260;2023-03-01T08:09:23;5.00;99.90
54006;DHT22;39919;38.160;-122.260;2023-03-01T08:11:55;5.00;99.90
54006;DHT22;39919;38.160;-122.260;2023-03-01T08:14:26;5.00;99.90
54006;DHT22;39919;38.160;-122.260;2023-03-01T08:16:55;4.90;99.90
54006;DHT22;39919;38.160;-122.260;2023-03-01T08:19:24;4.90;99.90
54006;DHT22;39919;38.160;-122.260;2023-03-01T08:21:54;4.90;99.90
54006;DHT22;39919;38.160;-122.260;2023-03-01T08:24:25;4.90;99.90
54006;DHT22;39919;38.160;-122.260;2023-03-01T08:26:56;4.80;99.90
54006;DHT22;39919;38.160;-122.260;2023-03-01T08:29:25;4.80;99.90
54006;DHT22;39919;38.160;-122.260;2023-03-01T08:31:54;4.70;99.90
54006;DHT22;39919;38.160;-122.260;2023-03-01T08:34:23;4.70;99.90
54006;DHT22;39919;38.160;-122.260;2023-03-01T08:36:52;4.70;99.90
54006;DHT22;39919;38.160;-122.260;2023-03-01T08:39:21;4.70;99.90
54006;DHT22;39919;38.160;-122.260;2023-03-01T08:41:50;4.60;99.90
54006;DHT22;39919;38.160;-122.260;2023-03-01T08:44:21;4.60;99.90
54006;DHT22;39919;38.160;-122.260;2023-03-01T08:46:51;4.60;99.90
54006;DHT22;39919;38.160;-122.260;2023-03-01T08:49:22;4.60;99.90
54006;DHT22;39919;38.160;-122.260;2023-03-01T08:51:51;4.50;99.90
54006;DHT22;39919;38.160;-122.260;2023-03-01T08:54:37;4.50;99.90
54006;DHT22;39919;38.160;-122.260;2023-03-01T08:57:06;4.50;99.90
54006;DHT22;39919;38.160;-122.260;2023-03-01T08:59:38;4.40;99.90
54006;DHT22;39919;38.160;-122.260;2023-03-01T09:02:12;4.40;99.90
54006;DHT22;39919;38.160;-122.260;2023-03-01T09:04:41;4.40;99.90
54006;DHT22;39919;38.160;-122.260;2023-03-01T09:07:11;4.40;99.90
54006;DHT22;39919;38.160;-122.260;2023-03-01T09:09:40;4.30;99.90
54006;DHT22;39919;38.160;-122.260;2023-03-01T09:12:09;4.30;99.90
54006;DHT22;39919;38.160;-122.260;2023-03-01T09:14:40;4.30;99.90
54006;DHT22;39919;38.160;-122.260;2023-03-01T09:17:09;4.30;99.90
54006;DHT22;39919;38.160;-122.260;2023-03-01T09:19:39;4.20;99.90
54006;DHT22;39919;38.160;-122.260;2023-03-01T09:22:08;4.20;99.90
54006;DHT22;39919;38.160;-122.260;2023-03-01T09:24:37;4.20;99.90
54006;DHT22;39919;38.160;-122.260;2023-03-01T09:27:07;4.20;99.90
54006;DHT22;39919;38.160;-122.260;2023-03-01T09:29:36;4.20;99.90
54006;DHT22;39919;38.160;-122.260;2023-03-01T09:32:08;4.20;99.90
54006;DHT22;39919;38.160;-122.260;2023-03-01T09:34:37;4.10;99.90
54006;DHT22;39919;38.160;-122.260;2023-03-01T09:37:19;4.10;99.90
54006;DHT22;39919;38.160;-122.260;2023-03-01T09:39:48;4.10;99.90
54006;DHT22;39919;38.160;-122.260;2023-03-01T09:42:17;4.10;99.90
54006;DHT22;39919;38.160;-122.260;2023-03-01T09:44:49;4.10;99.90
54006;DHT22;39919;38.160;-122.260;2023-03-01T09:47:24;4.00;99.90
54006;DHT22;39919;38.160;-122.260;2023-03-01T09:50:01;4.00;99.90
54006;DHT22;39919;38.160;-122.260;2023-03-01T09:52:36;4.00;99.90
54006;DHT22;39919;38.160;-122.260;2023-03-01T09:55:11;4.00;99.90
54006;DHT22;39919;38.160;-122.260;2023-03-01T09:57:47;4.00;99.90
54006;DHT22;39919;38.160;-122.260;2023-03-01T10:00:24;4.00;99.90
54006;DHT22;39919;38.160;-122.260;2023-03-01T10:03:04;3.90;99.90
54006;DHT22;39919;38.160;-122.260;2023-03-01T10:05:44;3.90;99.90
54006;DHT22;39919;38.160;-122.260;2023-03-01T10:08:23;3.90;99.90
54006;DHT22;39919;38.160;-122.260;2023-03-01T10:10:54;3.90;99.90
54006;DHT22;39919;38.160;-122.260;2023-03-01T10:13:25;3.90;99.90
54006;DHT22;39919;38.160;-122.260;2023-03-01T10:15:57;3.90;99.90
54006;DHT22;39919;38.160;-122.260;2023-03-01T10:18:31;3.90;99.90
54006;DHT22;39919;38.160;-122.260;2023-03-01T10:21:07;3.90;99.90
54006;DHT22;39919;38.160;-122.260;2023-03-01T10:23:39;3.80;99.90
54006;DHT22;39919;38.160;-122.260;2023-03-01T10:29:10;3.80;99.90
54006;DHT22;39919;38.160;-122.260;2023-03-01T10:31:43;3.80;99.90
54006;DHT22;39919;38.160;-122.260;2023-03-01T10:34:15;3.80;99.90
54006;DHT22;39919;38.160;-122.260;2023-03-01T10:36:48;3.70;99.90
54006;DHT22;39919;38.160;-122.260;2023-03-01T10:39:20;3.70;99.90
54006;DHT22;39919;38.160;-122.260;2023-03-01T10:41:58;3.70;99.90
54006;DHT22;39919;38.160;-122.260;2023-03-01T10:44:50;3.70;99.90
54006;DHT22;39919;38.160;-122.260;2023-03-01T10:47:21;3.70;99.90
54006;DHT22;39919;38.160;-122.260;2023-03-01T10:49:55;3.60;99.90
54006;DHT22;39919;38.160;-122.260;2023-03-01T10:52:27;3.60;99.90
54006;DHT22;39919;38.160;-122.260;2023-03-01T10:54:57;3.60;99.90
54006;DHT22;39919;38.160;-122.260;2023-03-01T10:57:37;3.60;99.90
54006;DHT22;39919;38.160;-122.260;2023-03-01T11:00:21;3.60;99.90
54006;DHT22;39919;38.160;-122.260;2023-03-01T11:05:59;3.50;99.90
54006;DHT22;39919;38.160;-122.260;2023-03-01T11:08:34;3.50;99.90
54006;DHT22;39919;38.160;-122.260;2023-03-01T11:11:28;3.50;99.90
54006;DHT22;39919;38.160;-122.260;2023-03-01T11:14:00;3.40;99.90
54006;DHT22;39919;38.160;-122.260;2023-03-01T11:16:35;3.40;99.90
54006;DHT22;39919;38.160;-122.260;2023-03-01T11:19:16;3.40;99.90
54006;DHT22;39919;38.160;-122.260;2023-03-01T11:21:58;3.40;99.90
54006;DHT22;39919;38.160;-122.260;2023-03-01T11:24:37;3.40;99.90
54006;DHT22;39919;38.160;-122.260;2023-03-01T11:27:16;3.30;99.90
54006;DHT22;39919;38.160;-122.260;2023-03-01T11:29:51;3.30;99.90
54006;DHT22;39919;38.160;-122.260;2023-03-01T11:32:22;3.30;99.90
54006;DHT22;39919;38.160;-122.260;2023-03-01T11:34:56;3.30;99.90
54006;DHT22;39919;38.160;-122.260;2023-03-01T11:37:38;3.30;99.90
54006;DHT22;39919;38.160;-122.260;2023-03-01T11:40:14;3.20;99.90
54006;DHT22;39919;38.160;-122.260;2023-03-01T11:42:52;3.20;99.90
54006;DHT22;39919;38.160;-122.260;2023-03-01T11:45:24;3.20;99.90
54006;DHT22;39919;38.160;-122.260;2023-03-01T11:48:03;3.20;99.90
54006;DHT22;39919;38.160;-122.260;2023-03-01T11:50:40;3.10;99.90
54006;DHT22;39919;38.160;-122.260;2023-03-01T11:53:28;3.10;99.90
54006;DHT22;39919;38.160;-122.260;2023-03-01T11:56:06;3.10;99.90
54006;DHT22;39919;38.160;-122.260;2023-03-01T11:59:02;3.10;99.90
54006;DHT22;39919;38.160;-122.260;2023-03-01T12:01:44;3.00;99.90
54006;DHT22;39919;38.160;-122.260;2023-03-01T12:07:25;3.00;99.90
54006;DHT22;39919;38.160;-122.260;2023-03-01T12:10:23;2.90;99.90
54006;DHT22;39919;38.160;-122.260;2023-03-01T12:13:01;2.90;99.90
54006;DHT22;39919;38.160;-122.260;2023-03-01T12:15:42;2.90;99.90
54006;DHT22;39919;38.160;-122.260;2023-03-01T12:18:36;2.90;99.90
54006;DHT22;39919;38.160;-122.260;2023-03-01T12:21:18;2.80;99.90
54006;DHT22;39919;38.160;-122.260;2023-03-01T12:24:08;2.80;99.90
54006;DHT22;39919;38.160;-122.260;2023-03-01T12:26:47;2.80;99.90
54006;DHT22;39919;38.160;-122.260;2023-03-01T12:29:26;2.70;99.90
54006;DHT22;39919;38.160;-122.260;2023-03-01T12:38:07;2.60;99.90
54006;DHT22;39919;38.160;-122.260;2023-03-01T12:43:51;2.50;99.90
54006;DHT22;39919;38.160;-122.260;2023-03-01T12:46:37;2.50;99.90
54006;DHT22;39919;38.160;-122.260;2023-03-01T12:49:10;2.40;99.90
54006;DHT22;39919;38.160;-122.260;2023-03-01T12:51:44;2.30;99.90
54006;DHT22;39919;38.160;-122.260;2023-03-01T12:54:20;2.30;99.90
54006;DHT22;39919;38.160;-122.260;2023-03-01T12:56:54;2.30;99.90
54006;DHT22;39919;38.160;-122.260;2023-03-01T12:59:30;2.20;99.90
54006;DHT22;39919;38.160;-122.260;2023-03-01T13:02:12;2.20;99.90
54006;DHT22;39919;38.160;-122.260;2023-03-01T13:04:57;2.20;99.90
54006;DHT22;39919;38.160;-122.260;2023-03-01T13:07:33;2.20;99.90
54006;DHT22;39919;38.160;-122.260;2023-03-01T13:10:19;2.20;99.90
54006;DHT22;39919;38.160;-122.260;2023-03-01T13:13:14;2.10;99.90
54006;DHT22;39919;38.160;-122.260;2023-03-01T13:15:49;2.10;99.90
54006;DHT22;39919;38.160;-122.260;2023-03-01T13:18:31;2.10;99.90
54006;DHT22;39919;38.160;-122.260;2023-03-01T13:21:02;2.10;99.90
54006;DHT22;39919;38.160;-122.260;2023-03-01T13:23:35;2.10;99.90
54006;DHT22;39919;38.160;-122.260;2023-03-01T13:26:08;2.10;99.90
54006;DHT22;39919;38.160;-122.260;2023-03-01T13:28:45;2.00;99.90
54006;DHT22;39919;38.160;-122.260;2023-03-01T13:34:45;2.00;99.90
54006;DHT22;39919;38.160;-122.260;2023-03-01T13:37:29;1.90;99.90
54006;DHT22;39919;38.160;-122.260;2023-03-01T13:40:01;1.90;99.90
54006;DHT22;39919;38.160;-122.260;2023-03-01T13:42:39;1.90;99.90
54006;DHT22;39919;38.160;-122.260;2023-03-01T13:45:21;1.90;99.90
54006;DHT22;39919;38.160;-122.260;2023-03-01T13:47:55;1.80;99.90
54006;DHT22;39919;38.160;-122.260;2023-03-01T13:50:29;1.80;99.90
54006;DHT22;39919;38.160;-122.260;2023-03-01T13:53:04;1.70;99.90
54006;DHT22;39919;38.160;-122.260;2023-03-01T13:55:40;1.70;99.90
54006;DHT22;39919;38.160;-122.260;2023-03-01T13:58:19;1.70;99.90
54006;DHT22;39919;38.160;-122.260;2023-03-01T14:00:59;1.60;99.90
54006;DHT22;39919;38.160;-122.260;2023-03-01T14:03:33;1.60;99.90
54006;DHT22;39919;38.160;-122.260;2023-03-01T14:06:08;1.60;99.90
54006;DHT22;39919;38.160;-122.260;2023-03-01T14:08:37;1.60;99.90
54006;DHT22;39919;38.160;-122.260;2023-03-01T14:17:39;1.50;99.90
54006;DHT22;39919;38.160;-122.260;2023-03-01T14:20:15;1.40;99.90
54006;DHT22;39919;38.160;-122.260;2023-03-01T14:22:48;1.40;99.90
54006;DHT22;39919;38.160;-122.260;2023-03-01T14:25:24;1.40;99.90
54006;DHT22;39919;38.160;-122.260;2023-03-01T14:27:59;1.30;99.90
54006;DHT22;39919;38.160;-122.260;2023-03-01T14:30:33;1.30;99.90
54006;DHT22;39919;38.160;-122.260;2023-03-01T14:33:05;1.30;99.90
54006;DHT22;39919;38.160;-122.260;2023-03-01T14:35:35;1.30;99.90
54006;DHT22;39919;38.160;-122.260;2023-03-01T14:38:20;1.20;99.90
54006;DHT22;39919;38.160;-122.260;2023-03-01T14:40:52;1.20;99.90
54006;DHT22;39919;38.160;-122.260;2023-03-01T14:43:24;1.20;99.90
54006;DHT22;39919;38.160;-122.260;2023-03-01T14:45:54;1.20;99.90
54006;DHT22;39919;38.160;-122.260;2023-03-01T14:48:23;1.20;99.90
54006;DHT22;39919;38.160;-122.260;2023-03-01T14:50:53;1.10;99.90
54006;DHT22;39919;38.160;-122.260;2023-03-01T14:53:26;1.10;99.90
54006;DHT22;39919;38.160;-122.260;2023-03-01T14:55:56;1.10;99.90
54006;DHT22;39919;38.160;-122.260;2023-03-01T14:58:31;1.10;99.90
54006;DHT22;39919;38.160;-122.260;2023-03-01T15:01:03;1.10;99.90
54006;DHT22;39919;38.160;-122.260;2023-03-01T15:03:35;1.10;99.90
54006;DHT22;39919;38.160;-122.260;2023-03-01T15:06:06;1.10;99.90
54006;DHT22;39919;38.160;-122.260;2023-03-01T15:08:42;1.10;99.90
54006;DHT22;39919;38.160;-122.260;2023-03-01T15:11:20;1.10;99.90
54006;DHT22;39919;38.160;-122.260;2023-03-01T15:13:51;1.10;99.90
54006;DHT22;39919;38.160;-122.260;2023-03-01T15:16:22;1.10;99.90
54006;DHT22;39919;38.160;-122.260;2023-03-01T15:18:54;1.10;99.90
54006;DHT22;39919;38.160;-122.260;2023-03-01T15:21:24;1.20;99.90
54006;DHT22;39919;38.160;-122.260;2023-03-01T15:24:00;1.20;99.90
54006;DHT22;39919;38.160;-122.260;2023-03-01T15:26:33;1.20;99.90
54006;DHT22;39919;38.160;-122.260;2023-03-01T15:29:04;1.20;99.90
54006;DHT22;39919;38.160;-122.260;2023-03-01T15:31:35;1.30;99.90
54006;DHT22;39919;38.160;-122.260;2023-03-01T15:34:10;1.30;99.90
54006;DHT22;39919;38.160;-122.260;2023-03-01T15:36:45;1.30;99.90
54006;DHT22;39919;38.160;-122.260;2023-03-01T15:39:37;1.40;99.90
54006;DHT22;39919;38.160;-122.260;2023-03-01T15:42:11;1.40;99.90
54006;DHT22;39919;38.160;-122.260;2023-03-01T15:44:41;1.50;99.90
54006;DHT22;39919;38.160;-122.260;2023-03-01T15:47:46;1.60;99.90
54006;DHT22;39919;38.160;-122.260;2023-03-01T15:50:19;1.70;99.90
54006;DHT22;39919;38.160;-122.260;2023-03-01T15:52:50;1.70;99.90
54006;DHT22;39919;38.160;-122.260;2023-03-01T15:55:23;1.80;99.90
54006;DHT22;39919;38.160;-122.260;2023-03-01T15:57:59;1.90;99.90
54006;DHT22;39919;38.160;-122.260;2023-03-01T16:00:28;2.00;99.90
54006;DHT22;39919;38.160;-122.260;2023-03-01T16:02:58;2.10;99.90
54006;DHT22;39919;38.160;-122.260;2023-03-01T16:05:28;2.20;99.90